createdAt,value
2023-02-25T00:00:18.804Z,15.80
2023-02-25T00:02:47.374Z,17.90
2023-02-25T00:05:15.926Z,17.70
2023-02-25T00:07:51.224Z,18.60
2023-02-25T00:10:19.445Z,18.30
2023-02-25T00:12:47.888Z,18.20
2023-02-25T00:15:16.030Z,17.70
2023-02-25T00:17:44.279Z,16.50
2023-02-25T00:20:15.262Z,18.80
2023-02-25T00:22:46.888Z,19.70
2023-02-25T00:25:16.936Z,18.70
2023-02-25T00:27:45.258Z,18.30
2023-02-25T00:30:14.407Z,15.50
2023-02-25T00:32:42.705Z,16.20
2023-02-25T00:35:13.046Z,17.20
2023-02-25T00:37:41.474Z,17.10
2023-02-25T00:40:16.367Z,19.10
2023-02-25T00:42:47.864Z,18.10
2023-02-25T00:45:16.355Z,16.70
2023-02-25T00:47:44.941Z,17.90
2023-02-25T00:50:14.534Z,17.00
2023-02-25T00:52:43.397Z,16.90
2023-02-25T00:55:15.847Z,17.10
2023-02-25T00:57:46.604Z,17.00
2023-02-25T01:00:17.477Z,18.50
2023-02-25T01:02:46.037Z,18.10
2023-02-25T01:05:14.813Z,17.80
2023-02-25T01:07:44.662Z,17.90
2023-02-25T01:10:13.716Z,18.80
2023-02-25T01:12:47.105Z,18.00
2023-02-25T01:15:16.952Z,17.30
2023-02-25T01:17:45.389Z,18.60
2023-02-25T01:20:20.195Z,16.60
2023-02-25T01:22:52.674Z,17.20
2023-02-25T01:25:26.286Z,18.40
2023-02-25T01:30:23.515Z,20.00
2023-02-25T01:32:52.773Z,21.00
2023-02-25T01:35:21.242Z,20.50
2023-02-25T01:37:50.576Z,20.20
2023-02-25T01:40:19.033Z,19.80
2023-02-25T01:42:47.660Z,19.30
2023-02-25T01:45:19.539Z,19.70
2023-02-25T01:47:54.236Z,18.40
2023-02-25T01:50:24.273Z,20.40
2023-02-25T01:52:55.148Z,20.30
2023-02-25T01:55:23.824Z,20.60
2023-02-25T01:57:52.433Z,21.70
2023-02-25T02:00:20.694Z,18.60
2023-02-25T02:02:53.890Z,18.30
2023-02-25T02:05:22.764Z,18.60
2023-02-25T02:07:51.296Z,18.80
2023-02-25T02:10:19.873Z,20.50
2023-02-25T02:12:48.699Z,21.20
2023-02-25T02:15:19.184Z,20.90
2023-02-25T02:17:57.472Z,19.40
2023-02-25T02:26:05.096Z,19.20
2023-02-25T02:28:51.513Z,19.50
2023-02-25T02:31:23.302Z,22.60
2023-02-25T02:34:00.129Z,21.90
2023-02-25T02:36:32.148Z,23.50
2023-02-25T02:39:00.924Z,22.50
2023-02-25T02:41:36.773Z,22.50
2023-02-25T02:44:11.655Z,23.20
2023-02-25T02:46:42.867Z,23.00
2023-02-25T02:51:43.182Z,20.60
2023-02-25T02:54:11.832Z,23.20
2023-02-25T02:56:42.524Z,23.20
2023-02-25T02:59:15.873Z,25.10
2023-02-25T03:01:50.809Z,25.00
2023-02-25T03:04:22.861Z,27.90
2023-02-25T03:06:52.783Z,23.70
2023-02-25T03:09:26.588Z,24.30
2023-02-25T03:11:55.279Z,23.30
2023-02-25T03:14:24.422Z,24.00
2023-02-25T03:17:07.859Z,23.80
2023-02-25T03:19:39.538Z,24.80
2023-02-25T03:22:08.987Z,23.90
2023-02-25T03:24:45.453Z,25.00
2023-02-25T03:27:49.721Z,27.20
2023-02-25T03:30:23.607Z,25.60
2023-02-25T03:32:53.803Z,25.50
2023-02-25T03:35:22.000Z,24.80
2023-02-25T03:37:52.151Z,26.10
2023-02-25T03:40:22.057Z,25.60
2023-02-25T03:42:54.882Z,26.90
2023-02-25T03:45:24.433Z,26.00
2023-02-25T03:47:54.119Z,30.80
2023-02-25T03:50:23.033Z,30.90
2023-02-25T03:53:15.127Z,28.60
2023-02-25T03:56:08.470Z,29.60
2023-02-25T03:58:38.054Z,26.20
2023-02-25T04:01:07.753Z,27.30
2023-02-25T04:03:36.121Z,27.20
2023-02-25T04:06:06.821Z,30.20
